Time;durP1;ratioP1;P1;durP2;ratioP2;P2;SDS_P1;SDS_P2;PMS_P1;PMS_P2;Temp;Humidity;BMP_temperature;BMP_pressure;BME280_temperature;BME280_humidity;BME280_pressure;Samples;Min_cycle;Max_cycle;Signal;HPM_P1;HPM_P2
2022/07/16 00:02:04;;;;;;;1.02;0.93;;;21.50;56.80;;;;;;4974451;28;20089;-72
2022/07/16 00:04:30;;;;;;;1.30;1.02;;;21.50;56.80;;;;;;5009293;28;20406;-72
2022/07/16 00:06:58;;;;;;;2.55;0.90;;;21.50;56.80;;;;;;5008287;28;20049;-72
2022/07/16 00:09:25;;;;;;;1.25;0.90;;;21.50;56.80;;;;;;5010426;28;20053;-73
2022/07/16 00:11:52;;;;;;;1.17;1.00;;;21.50;56.80;;;;;;5009387;28;20054;-72
2022/07/16 00:14:19;;;;;;;2.05;1.10;;;21.60;56.80;;;;;;5009215;28;20383;-72
2022/07/16 00:16:46;;;;;;;2.67;1.20;;;21.50;56.80;;;;;;5009075;28;20406;-72
2022/07/16 00:19:19;;;;;;;2.67;1.10;;;21.50;56.90;;;;;;5009350;28;20057;-73
2022/07/16 00:21:47;;;;;;;1.88;1.00;;;21.40;56.80;;;;;;5008727;28;20050;-72
2022/07/16 00:24:15;;;;;;;1.05;0.90;;;21.50;56.80;;;;;;5010302;28;20407;-72
2022/07/16 00:26:42;;;;;;;1.10;1.00;;;21.40;56.80;;;;;;5009359;28;20061;-73
2022/07/16 00:29:09;;;;;;;1.08;0.90;;;21.50;56.80;;;;;;5008804;28;20058;-73
2022/07/16 00:31:36;;;;;;;2.78;1.08;;;21.40;56.80;;;;;;5009079;28;20056;-72
2022/07/16 00:34:03;;;;;;;3.42;1.10;;;21.40;56.80;;;;;;5013187;28;20137;-73
2022/07/16 00:36:29;;;;;;;1.70;1.05;;;21.40;56.80;;;;;;5012506;28;20137;-73
2022/07/16 00:38:56;;;;;;;1.30;1.10;;;21.40;56.80;;;;;;5012546;28;20068;-73
2022/07/16 00:41:24;;;;;;;1.70;1.05;;;21.40;56.80;;;;;;5013724;28;20133;-73
2022/07/16 00:43:52;;;;;;;1.58;1.20;;;21.40;56.70;;;;;;5012661;28;20487;-72
2022/07/16 00:46:18;;;;;;;2.15;1.10;;;21.40;56.80;;;;;;5012651;28;20068;-73
2022/07/16 00:48:46;;;;;;;1.27;1.00;;;21.40;56.80;;;;;;5012503;28;20053;-73
2022/07/16 00:51:13;;;;;;;1.25;1.00;;;21.40;57.40;;;;;;5012522;28;20125;-73
2022/07/16 00:53:39;;;;;;;1.55;1.10;;;21.40;56.80;;;;;;5011636;28;20140;-73
2022/07/16 00:56:08;;;;;;;1.67;1.10;;;21.40;56.80;;;;;;5011656;28;20426;-73
2022/07/16 00:58:37;;;;;;;1.55;1.00;;;21.40;56.80;;;;;;5012360;28;20499;-71
2022/07/16 01:01:03;;;;;;;1.13;1.02;;;21.40;56.80;;;;;;5012203;28;20062;-72
2022/07/16 01:03:30;;;;;;;1.50;1.02;;;21.30;56.80;;;;;;5011944;28;20529;-73
2022/07/16 01:05:57;;;;;;;1.42;1.10;;;21.30;56.80;;;;;;5011944;28;20145;-72
2022/07/16 01:08:24;;;;;;;1.50;1.00;;;21.30;56.80;;;;;;5012004;28;20079;-72
2022/07/16 01:10:51;;;;;;;2.33;1.10;;;21.30;56.80;;;;;;5012326;28;20156;-73
2022/07/16 01:13:17;;;;;;;1.45;1.10;;;21.30;56.80;;;;;;5012932;28;20060;-72
2022/07/16 01:15:46;;;;;;;1.20;0.82;;;21.30;56.80;;;;;;5012177;28;20057;-72
2022/07/16 01:18:12;;;;;;;2.55;1.23;;;21.30;56.80;;;;;;5011988;28;20137;-72
2022/07/16 01:20:39;;;;;;;2.05;1.10;;;21.30;56.80;;;;;;5012030;28;20355;-73
2022/07/16 01:23:06;;;;;;;1.98;1.02;;;21.30;56.80;;;;;;5011127;28;20077;-72
2022/07/16 01:25:34;;;;;;;1.17;0.90;;;21.30;56.80;;;;;;5011752;28;20084;-72
2022/07/16 01:28:01;;;;;;;2.47;1.20;;;21.30;56.80;;;;;;5011792;28;20058;-72
2022/07/16 01:30:27;;;;;;;1.70;1.20;;;21.30;57.10;;;;;;5011326;28;20076;-73
2022/07/16 01:32:54;;;;;;;1.42;0.95;;;21.30;56.90;;;;;;5012237;28;20084;-72
2022/07/16 01:35:21;;;;;;;0.98;0.90;;;21.30;56.90;;;;;;5011895;28;20079;-73
2022/07/16 01:37:47;;;;;;;1.98;1.10;;;21.30;57.00;;;;;;5011669;28;20064;-73
2022/07/16 01:40:14;;;;;;;1.55;1.10;;;21.30;57.00;;;;;;5011205;28;20515;-71
2022/07/16 01:42:44;;;;;;;1.25;1.10;;;21.30;57.00;;;;;;5012579;28;20125;-73
2022/07/16 01:45:11;;;;;;;5.13;1.10;;;21.30;57.00;;;;;;5010405;28;20059;-73
2022/07/16 01:47:38;;;;;;;1.20;1.10;;;21.30;57.00;;;;;;5011053;28;20056;-73
2022/07/16 01:50:05;;;;;;;2.15;1.27;;;21.30;57.00;;;;;;5011270;28;20129;-72
2022/07/16 01:52:32;;;;;;;1.45;1.10;;;21.30;57.10;;;;;;5010940;28;20046;-73
2022/07/16 01:54:59;;;;;;;1.55;1.10;;;21.30;57.10;;;;;;5010863;28;20064;-72
2022/07/16 01:57:26;;;;;;;1.10;1.00;;;21.30;57.10;;;;;;5011231;28;20061;-73
2022/07/16 01:59:54;;;;;;;1.50;1.10;;;21.30;57.10;;;;;;5010588;28;20089;-73
2022/07/16 02:02:20;;;;;;;2.08;1.20;;;21.20;57.10;;;;;;5011764;28;20053;-73
2022/07/16 02:04:47;;;;;;;2.75;1.20;;;21.20;57.10;;;;;;5011027;28;20555;-72
2022/07/16 02:07:14;;;;;;;1.50;1.10;;;21.20;57.10;;;;;;5010940;28;20058;-73
2022/07/16 02:09:40;;;;;;;1.58;1.05;;;21.20;57.10;;;;;;5010981;28;20056;-73
2022/07/16 02:12:07;;;;;;;1.50;1.10;;;21.20;57.20;;;;;;5010898;28;20058;-71
2022/07/16 02:14:34;;;;;;;6.13;1.30;;;21.20;57.20;;;;;;5010577;28;20069;-73
2022/07/16 02:17:02;;;;;;;1.45;1.10;;;21.20;57.20;;;;;;5010961;28;20050;-73
2022/07/16 02:19:29;;;;;;;1.38;1.20;;;21.20;57.30;;;;;;5010923;28;20060;-72
2022/07/16 02:21:55;;;;;;;1.23;1.08;;;21.20;57.30;;;;;;5011682;28;20515;-73
2022/07/16 02:24:23;;;;;;;1.98;1.20;;;21.20;57.30;;;;;;5010289;28;20133;-73
2022/07/16 02:26:49;;;;;;;2.67;1.25;;;21.20;57.30;;;;;;5010539;28;20077;-72
2022/07/16 02:29:16;;;;;;;1.10;1.00;;;21.20;57.40;;;;;;5010366;28;20060;-73
2022/07/16 02:31:43;;;;;;;1.63;1.00;;;21.10;57.30;;;;;;5010709;28;20068;-73
2022/07/16 02:34:11;;;;;;;1.42;1.02;;;21.70;59.20;;;;;;5011612;28;20056;-72
2022/07/16 02:36:38;;;;;;;1.55;1.20;;;21.20;57.40;;;;;;5010019;28;20064;-72
2022/07/16 02:39:04;;;;;;;2.42;1.08;;;21.20;57.40;;;;;;5010245;28;20081;-73
2022/07/16 02:41:31;;;;;;;1.35;1.00;;;21.10;57.40;;;;;;5010105;28;20082;-73
2022/07/16 02:43:58;;;;;;;1.67;1.10;;;21.10;57.40;;;;;;5009601;28;20053;-73
2022/07/16 02:46:25;;;;;;;2.15;1.13;;;21.10;57.40;;;;;;5010234;28;20140;-73
2022/07/16 02:48:51;;;;;;;1.25;1.10;;;21.20;57.40;;;;;;5010351;28;20138;-73
2022/07/16 02:51:19;;;;;;;1.48;1.00;;;21.10;57.40;;;;;;5010247;28;20060;-71
2022/07/16 02:53:46;;;;;;;2.08;1.13;;;21.10;58.00;;;;;;5026241;28;20141;-72
2022/07/16 02:56:13;;;;;;;1.40;1.10;;;21.10;57.40;;;;;;5009993;28;20088;-73
2022/07/16 02:58:39;;;;;;;1.55;1.20;;;21.10;57.40;;;;;;5010150;28;20057;-73
2022/07/16 03:01:06;;;;;;;1.30;1.02;;;21.20;57.60;;;;;;5010108;28;20092;-73
2022/07/16 03:03:33;;;;;;;1.08;0.98;;;21.10;57.50;;;;;;5009377;28;20046;-72
2022/07/16 03:06:00;;;;;;;1.23;1.13;;;21.10;57.50;;;;;;5009949;28;20129;-73
2022/07/16 03:08:28;;;;;;;2.42;1.20;;;21.10;57.50;;;;;;5010181;28;20396;-72
2022/07/16 03:10:54;;;;;;;1.73;1.00;;;21.20;57.60;;;;;;5010010;28;20054;-73
2022/07/16 03:13:21;;;;;;;1.15;1.00;;;21.10;58.10;;;;;;5009658;28;20079;-72
2022/07/16 03:15:48;;;;;;;1.80;1.08;;;21.10;57.60;;;;;;5009972;28;20161;-72
2022/07/16 03:18:15;;;;;;;1.40;1.00;;;21.10;57.60;;;;;;5009735;28;20408;-73
2022/07/16 03:20:41;;;;;;;1.13;1.02;;;21.10;57.60;;;;;;5009353;28;20128;-72
2022/07/16 03:23:08;;;;;;;2.13;1.05;;;21.00;57.60;;;;;;5009282;28;20521;-72
2022/07/16 03:25:37;;;;;;;2.45;1.10;;;21.10;57.60;;;;;;5010046;28;20141;-73
2022/07/16 03:28:03;;;;;;;1.55;1.10;;;21.10;57.60;;;;;;5009858;28;20427;-72
2022/07/16 03:30:30;;;;;;;1.77;1.10;;;21.10;57.60;;;;;;5009278;28;20064;-72
2022/07/16 03:32:58;;;;;;;3.20;1.10;;;21.10;57.60;;;;;;5009449;28;20064;-72
2022/07/16 03:35:24;;;;;;;1.08;0.93;;;21.10;57.60;;;;;;5009369;28;20555;-72
2022/07/16 03:40:37;;;;;;;1.45;1.00;;;21.00;57.60;;;;;;5025998;28;20050;-72
2022/07/16 03:43:04;;;;;;;1.50;1.10;;;21.00;57.60;;;;;;5009349;28;20407;-72
2022/07/16 03:45:31;;;;;;;1.80;1.30;;;21.00;57.60;;;;;;5009678;28;20054;-73
2022/07/16 03:47:57;;;;;;;1.20;1.00;;;21.00;57.60;;;;;;5010366;28;20680;-72
2022/07/16 03:50:24;;;;;;;1.77;1.15;;;21.00;57.60;;;;;;5010246;28;20053;-73
2022/07/16 03:52:51;;;;;;;2.10;0.93;;;21.00;57.60;;;;;;5009032;28;20054;-72
2022/07/16 03:55:17;;;;;;;1.52;1.00;;;21.00;57.60;;;;;;5010936;28;20058;-72
2022/07/16 03:57:46;;;;;;;1.33;0.90;;;21.00;57.60;;;;;;5010649;28;20049;-73
2022/07/16 04:00:13;;;;;;;2.15;1.10;;;21.00;57.60;;;;;;5009087;28;20136;-72
2022/07/16 04:02:40;;;;;;;4.45;1.42;;;21.00;57.50;;;;;;5009424;28;20125;-73
2022/07/16 04:05:07;;;;;;;1.20;1.00;;;21.00;57.60;;;;;;5008644;28;20068;-72
2022/07/16 04:07:34;;;;;;;1.65;1.10;;;21.00;57.60;;;;;;5010539;28;20062;-72
2022/07/16 04:10:01;;;;;;;1.42;1.25;;;21.00;57.60;;;;;;5013107;28;20141;-73
2022/07/16 04:12:27;;;;;;;1.30;0.90;;;21.00;57.60;;;;;;5013154;28;20814;-72
2022/07/16 04:14:55;;;;;;;2.17;1.20;;;21.00;57.60;;;;;;5012968;28;20137;-72
2022/07/16 04:17:22;;;;;;;1.35;0.98;;;21.00;57.60;;;;;;5014059;28;20676;-72
2022/07/16 04:19:50;;;;;;;1.92;1.10;;;21.00;57.60;;;;;;5012548;28;20058;-73
2022/07/16 04:22:16;;;;;;;1.45;1.00;;;21.00;57.60;;;;;;5012859;28;20101;-73
2022/07/16 04:24:43;;;;;;;1.58;1.10;;;21.00;57.60;;;;;;5012882;28;20056;-72
2022/07/16 04:27:10;;;;;;;2.03;1.05;;;21.00;57.50;;;;;;5013185;28;20064;-73
2022/07/16 04:29:37;;;;;;;1.80;1.02;;;21.00;57.50;;;;;;5014501;28;20045;-73
2022/07/16 04:32:06;;;;;;;1.70;1.20;;;21.00;57.50;;;;;;5012628;28;20145;-72
2022/07/16 04:34:33;;;;;;;2.42;1.17;;;21.00;57.60;;;;;;5012662;28;20058;-73
2022/07/16 04:36:59;;;;;;;1.58;1.02;;;21.00;57.60;;;;;;5014224;28;20406;-73
2022/07/16 04:39:26;;;;;;;2.90;1.17;;;20.90;57.50;;;;;;5012773;28;20068;-72
2022/07/16 04:41:53;;;;;;;2.05;1.20;;;20.90;57.50;;;;;;5012479;28;20053;-72
2022/07/16 04:44:20;;;;;;;1.65;0.95;;;20.90;57.50;;;;;;5012083;28;20052;-72
2022/07/16 04:46:46;;;;;;;1.15;1.00;;;20.90;57.50;;;;;;5013465;28;20048;-72
2022/07/16 04:49:14;;;;;;;2.60;1.05;;;20.90;57.50;;;;;;5012088;28;20140;-72
2022/07/16 04:51:41;;;;;;;1.33;1.00;;;20.90;57.50;;;;;;5012218;28;20049;-72
2022/07/16 04:54:08;;;;;;;1.65;1.10;;;20.90;57.50;;;;;;5011984;28;20157;-72
2022/07/16 04:56:34;;;;;;;1.15;1.00;;;20.90;57.50;;;;;;5012489;28;20116;-72
2022/07/16 04:59:01;;;;;;;2.88;1.00;;;21.10;59.30;;;;;;5013088;28;20132;-72
2022/07/16 05:01:28;;;;;;;1.08;0.88;;;20.90;57.50;;;;;;5011803;28;20097;-73
2022/07/16 05:03:54;;;;;;;2.65;1.23;;;20.90;57.40;;;;;;5011686;28;20049;-72
2022/07/16 05:06:23;;;;;;;2.40;1.02;;;20.90;57.50;;;;;;5012191;28;20566;-72
2022/07/16 05:08:49;;;;;;;2.60;1.08;;;20.90;59.20;;;;;;5012312;28;20057;-72
2022/07/16 05:11:16;;;;;;;1.83;1.10;;;20.90;57.50;;;;;;5011666;28;20337;-73
2022/07/16 05:13:43;;;;;;;1.20;1.10;;;20.90;57.50;;;;;;5011151;28;20128;-72
2022/07/16 05:16:09;;;;;;;1.77;1.08;;;20.90;57.50;;;;;;5012044;28;20498;-72
2022/07/16 05:18:36;;;;;;;1.50;1.00;;;20.90;57.50;;;;;;5013018;28;20148;-73
2022/07/16 05:21:03;;;;;;;1.42;1.17;;;20.90;57.50;;;;;;5011881;28;20057;-73
2022/07/16 05:23:31;;;;;;;1.75;1.20;;;20.90;57.50;;;;;;5011785;28;20503;-72
2022/07/16 05:25:58;;;;;;;2.40;1.10;;;20.50;58.80;;;;;;5011576;28;20104;-72
2022/07/16 05:28:24;;;;;;;2.08;1.00;;;21.00;58.10;;;;;;5011945;28;20534;-73
2022/07/16 05:30:51;;;;;;;2.58;1.00;;;21.00;57.50;;;;;;5011445;28;20152;-72
2022/07/16 05:33:18;;;;;;;1.30;1.00;;;21.00;59.30;;;;;;5010525;28;20052;-72
2022/07/16 05:35:45;;;;;;;1.65;1.27;;;21.00;57.40;;;;;;5011628;28;20521;-73
2022/07/16 05:38:12;;;;;;;2.58;1.10;;;21.00;57.40;;;;;;5011612;28;20064;-72
2022/07/16 05:40:40;;;;;;;2.30;1.17;;;21.00;57.40;;;;;;5010673;28;20050;-72
2022/07/16 05:43:07;;;;;;;1.48;1.00;;;21.00;57.40;;;;;;5012208;28;20042;-74
2022/07/16 05:45:34;;;;;;;1.50;1.13;;;21.00;57.40;;;;;;5011607;28;20084;-73
2022/07/16 05:48:00;;;;;;;1.85;1.10;;;21.00;57.40;;;;;;5011200;28;20469;-74
2022/07/16 05:50:27;;;;;;;2.90;1.20;;;21.00;57.40;;;;;;5011091;28;20446;-73
2022/07/16 05:52:54;;;;;;;3.38;1.20;;;21.00;57.40;;;;;;5011277;28;20137;-73
2022/07/16 05:55:20;;;;;;;2.53;1.23;;;21.00;57.40;;;;;;5011377;28;20211;-73
2022/07/16 05:57:49;;;;;;;1.23;0.95;;;21.10;57.50;;;;;;5011513;28;20064;-73
2022/07/16 06:00:15;;;;;;;2.22;1.20;;;22.50;58.20;;;;;;5011609;28;20423;-73
2022/07/16 06:02:42;;;;;;;1.75;1.15;;;21.10;57.40;;;;;;5011241;28;20088;-72
2022/07/16 06:05:09;;;;;;;2.00;1.00;;;21.20;57.40;;;;;;5011245;28;20057;-72
2022/07/16 06:07:36;;;;;;;3.22;1.10;;;21.30;57.30;;;;;;5011351;28;20136;-72
2022/07/16 06:10:06;;;;;;;1.95;1.02;;;21.40;57.30;;;;;;5011276;28;20470;-72
2022/07/16 06:12:35;;;;;;;2.53;1.00;;;21.50;57.20;;;;;;5011180;28;20053;-72
2022/07/16 06:15:03;;;;;;;1.52;1.20;;;21.60;57.00;;;;;;5010829;28;20053;-71
2022/07/16 06:17:30;;;;;;;2.83;1.40;;;21.80;56.80;;;;;;5010523;28;20054;-72
2022/07/16 06:19:57;;;;;;;2.42;1.08;;;21.90;56.60;;;;;;5010843;28;20652;-72
2022/07/16 06:22:24;;;;;;;2.10;0.85;;;22.10;56.50;;;;;;5011944;28;20049;-72
2022/07/16 06:24:50;;;;;;;3.15;1.20;;;22.20;56.30;;;;;;5010297;28;20385;-72
2022/07/16 06:27:17;;;;;;;3.50;1.08;;;22.30;56.00;;;;;;5010704;28;20061;-72
2022/07/16 06:29:44;;;;;;;2.33;1.13;;;22.50;55.90;;;;;;5009956;28;20065;-72
2022/07/16 06:32:12;;;;;;;1.15;0.93;;;22.60;55.70;;;;;;5010229;28;20054;-73
2022/07/16 06:34:38;;;;;;;3.97;1.30;;;22.70;55.50;;;;;;5011699;28;20514;-72
2022/07/16 06:37:05;;;;;;;2.33;1.30;;;22.80;55.30;;;;;;5010645;28;20054;-72
2022/07/16 06:39:32;;;;;;;2.08;1.23;;;22.90;55.20;;;;;;5009854;28;20107;-72
2022/07/16 06:41:59;;;;;;;2.33;1.13;;;23.20;55.10;;;;;;5010273;28;20137;-73
2022/07/16 06:44:26;;;;;;;2.70;1.10;;;23.10;54.80;;;;;;5009625;28;20072;-72
2022/07/16 06:46:53;;;;;;;2.42;0.93;;;23.20;54.70;;;;;;5010305;28;20129;-72
2022/07/16 06:49:21;;;;;;;2.35;1.17;;;23.30;54.60;;;;;;5010596;28;20056;-76
2022/07/16 06:51:48;;;;;;;1.70;1.15;;;23.40;54.50;;;;;;5010178;28;20057;-72
2022/07/16 06:54:15;;;;;;;2.00;1.05;;;23.50;54.40;;;;;;5011236;28;20542;-72
2022/07/16 06:56:41;;;;;;;2.35;1.30;;;23.60;54.30;;;;;;5011163;28;20042;-73
2022/07/16 06:59:08;;;;;;;1.33;0.95;;;23.70;54.20;;;;;;5010332;28;20061;-72
2022/07/16 07:01:35;;;;;;;1.98;0.93;;;23.80;54.00;;;;;;5010363;28;20136;-73
2022/07/16 07:04:01;;;;;;;2.25;1.13;;;23.90;53.80;;;;;;5009649;28;20404;-72
2022/07/16 07:06:30;;;;;;;2.78;1.00;;;24.00;53.70;;;;;;5011166;28;20050;-72
2022/07/16 07:08:56;;;;;;;2.20;1.08;;;24.00;53.50;;;;;;5010358;28;20077;-73
2022/07/16 07:11:23;;;;;;;2.22;0.93;;;24.20;53.50;;;;;;5009441;28;20138;-73
2022/07/16 07:13:50;;;;;;;1.67;1.10;;;24.30;53.30;;;;;;5009610;28;20064;-73
2022/07/16 07:16:17;;;;;;;1.33;0.80;;;24.30;53.10;;;;;;5020898;28;20120;-72
2022/07/16 07:18:44;;;;;;;2.20;0.85;;;24.40;53.10;;;;;;5010763;28;20046;-73
2022/07/16 07:21:11;;;;;;;1.40;1.00;;;24.50;53.00;;;;;;5008954;28;20140;-73
2022/07/16 07:23:39;;;;;;;2.20;0.90;;;24.60;53.00;;;;;;5008249;28;20045;-73
2022/07/16 07:26:06;;;;;;;2.00;1.00;;;24.60;52.90;;;;;;5008223;28;20128;-73
2022/07/16 07:28:32;;;;;;;1.63;1.00;;;24.60;52.80;;;;;;5009175;28;20053;-73
2022/07/16 07:30:59;;;;;;;1.00;0.80;;;24.60;52.90;;;;;;5009743;28;20142;-72
2022/07/16 07:33:26;;;;;;;0.77;0.77;;;24.50;52.80;;;;;;5009855;28;20561;-73
2022/07/16 07:35:53;;;;;;;0.98;0.80;;;24.50;52.80;;;;;;5009950;28;20068;-73
2022/07/16 07:38:19;;;;;;;2.10;1.20;;;24.50;52.80;;;;;;5009179;28;20057;-73
2022/07/16 07:40:47;;;;;;;1.60;0.90;;;24.50;52.90;;;;;;5008792;28;20062;-73
2022/07/16 07:43:14;;;;;;;2.63;1.10;;;24.40;52.80;;;;;;5011320;28;20060;-73
2022/07/16 07:45:41;;;;;;;1.40;0.90;;;24.40;52.90;;;;;;5015014;28;20060;-73
2022/07/16 07:48:07;;;;;;;1.63;0.90;;;24.40;52.90;;;;;;5013529;28;20261;-72
2022/07/16 07:50:34;;;;;;;2.08;0.90;;;24.30;52.90;;;;;;5012932;28;20140;-72
2022/07/16 07:53:01;;;;;;;1.65;0.88;;;24.40;53.00;;;;;;5013460;28;20434;-72
2022/07/16 07:55:28;;;;;;;1.38;0.80;;;24.40;53.00;;;;;;5013424;28;20046;-72
2022/07/16 07:57:56;;;;;;;1.60;0.80;;;24.50;53.00;;;;;;5013656;28;20149;-72
2022/07/16 08:00:22;;;;;;;1.52;0.90;;;24.50;53.00;;;;;;5014575;28;20056;-72
2022/07/16 08:02:49;;;;;;;1.50;0.88;;;24.40;52.90;;;;;;5012735;28;20552;-72
2022/07/16 08:05:16;;;;;;;1.02;0.73;;;24.60;53.00;;;;;;5012166;28;20142;-72
2022/07/16 08:07:43;;;;;;;2.10;1.00;;;24.60;52.90;;;;;;5012482;28;20068;-72
2022/07/16 08:10:10;;;;;;;0.60;0.60;;;24.70;53.00;;;;;;5012597;28;20049;-72
2022/07/16 08:12:37;;;;;;;1.30;1.00;;;24.60;52.90;;;;;;5029499;28;20137;-72
2022/07/16 08:15:06;;;;;;;1.95;0.90;;;24.60;52.80;;;;;;5012446;28;20052;-73
2022/07/16 08:17:33;;;;;;;0.88;0.70;;;24.60;52.80;;;;;;5012630;28;20057;-72
2022/07/16 08:20:00;;;;;;;1.67;1.00;;;24.60;52.80;;;;;;5013048;28;20058;-72
2022/07/16 08:22:27;;;;;;;2.17;1.00;;;24.70;52.80;;;;;;5013330;28;20057;-71
2022/07/16 08:27:38;;;;;;;1.23;0.80;;;24.70;52.70;;;;;;5011199;28;20058;-70
2022/07/16 08:30:07;;;;;;;1.83;1.08;;;24.70;52.70;;;;;;5003958;28;20042;-70
2022/07/16 08:32:34;;;;;;;1.00;0.70;;;24.70;52.70;;;;;;5003914;28;20054;-70
2022/07/16 08:35:00;;;;;;;0.80;0.70;;;24.80;52.70;;;;;;5005365;28;20056;-70
2022/07/16 08:37:35;;;;;;;2.55;0.90;;;24.70;52.70;;;;;;5003498;28;20045;-71
2022/07/16 08:40:02;;;;;;;;;;;24.70;52.60;;;;;;5004271;28;20064;-70
2022/07/16 08:42:29;;;;;;;2.35;0.90;;;24.70;53.00;;;;;;5019200;28;20008;-70
2022/07/16 08:44:57;;;;;;;0.93;0.68;;;24.60;52.70;;;;;;5001214;28;20050;-71
2022/07/16 08:47:26;;;;;;;2.45;0.90;;;24.80;52.80;;;;;;5008740;28;20068;-71
2022/07/16 08:49:52;;;;;;;1.83;0.82;;;24.60;52.70;;;;;;5013256;28;20042;-70
2022/07/16 08:52:19;;;;;;;1.98;1.00;;;24.60;52.70;;;;;;5012423;28;20409;-70
2022/07/16 08:54:46;;;;;;;1.20;0.90;;;24.50;52.70;;;;;;5005879;28;20046;-71
2022/07/16 08:57:13;;;;;;;1.23;0.80;;;24.40;52.70;;;;;;5013035;28;20045;-71
2022/07/16 08:59:40;;;;;;;1.17;0.90;;;24.40;52.80;;;;;;5012622;28;20141;-70
2022/07/16 09:02:06;;;;;;;1.27;0.90;;;24.40;52.80;;;;;;5011479;28;20403;-70
2022/07/16 09:04:35;;;;;;;1.23;0.80;;;24.30;52.80;;;;;;5013219;28;20050;-71
2022/07/16 09:07:01;;;;;;;3.08;0.88;;;24.30;52.90;;;;;;5011554;28;20053;-70
2022/07/16 09:09:28;;;;;;;1.58;1.00;;;24.30;52.90;;;;;;5013779;28;20468;-70
2022/07/16 09:11:55;;;;;;;1.73;0.80;;;24.30;53.00;;;;;;5013505;28;20050;-71
2022/07/16 09:14:21;;;;;;;0.98;0.73;;;24.20;53.00;;;;;;5012997;28;20149;-71
2022/07/16 09:16:49;;;;;;;2.08;0.95;;;24.30;53.00;;;;;;5011872;28;20057;-71
2022/07/16 09:19:18;;;;;;;1.58;0.80;;;24.30;53.00;;;;;;5011901;28;20088;-71
2022/07/16 09:22:02;;;;;;;2.83;0.90;;;25.40;53.80;;;;;;5011788;28;20513;-71
2022/07/16 09:24:37;;;;;;;3.83;0.88;;;24.30;53.10;;;;;;5011208;28;20406;-70
2022/07/16 09:27:05;;;;;;;0.82;0.73;;;24.30;53.10;;;;;;5012780;28;20046;-71
2022/07/16 09:29:34;;;;;;;1.50;0.90;;;24.30;53.10;;;;;;5013152;28;20049;-71
2022/07/16 09:32:01;;;;;;;2.95;0.93;;;24.30;53.10;;;;;;5018772;28;20080;-71
2022/07/16 09:34:27;;;;;;;3.92;0.93;;;24.30;52.60;;;;;;5012535;28;20050;-71
2022/07/16 09:36:59;;;;;;;2.10;0.90;;;24.20;52.60;;;;;;5011168;28;20570;-70
2022/07/16 09:39:27;;;;;;;2.83;0.98;;;24.20;52.80;;;;;;5011740;28;20141;-71
2022/07/16 09:41:53;;;;;;;2.75;1.02;;;24.20;52.90;;;;;;5012495;28;20137;-71
2022/07/16 09:44:21;;;;;;;2.00;0.88;;;24.10;52.90;;;;;;5011219;28;20081;-73
2022/07/16 09:47:02;;;;;;;1.23;0.80;;;24.20;53.00;;;;;;5011618;28;20046;-73
2022/07/16 09:49:29;;;;;;;4.47;1.20;;;24.20;53.00;;;;;;5010866;28;20058;-73
2022/07/16 09:51:56;;;;;;;1.77;0.85;;;24.10;53.00;;;;;;5011671;28;20128;-73
2022/07/16 09:54:29;;;;;;;3.15;0.90;;;24.10;53.00;;;;;;5011544;28;20092;-73
2022/07/16 09:57:06;;;;;;;2.67;1.00;;;24.10;52.90;;;;;;5011534;28;20086;-73
2022/07/16 09:59:33;;;;;;;2.97;1.15;;;24.10;52.90;;;;;;5010673;28;20084;-72
2022/07/16 10:02:00;;;;;;;3.55;0.90;;;24.10;53.00;;;;;;5008244;28;20436;-72
2022/07/16 10:04:27;;;;;;;5.38;1.13;;;24.10;53.00;;;;;;5010613;28;20406;-72
2022/07/16 10:06:53;;;;;;;3.35;1.00;;;24.10;53.00;;;;;;5011225;28;20050;-72
2022/07/16 10:09:20;;;;;;;6.10;0.90;;;24.00;53.00;;;;;;5010923;28;20088;-72
2022/07/16 10:11:48;;;;;;;3.53;1.20;;;24.10;53.00;;;;;;5009514;28;20072;-72
2022/07/16 10:14:15;;;;;;;3.08;1.00;;;24.10;53.00;;;;;;5009713;28;20041;-72
2022/07/16 10:16:43;;;;;;;2.95;0.90;;;24.10;52.90;;;;;;5011427;28;20050;-72
2022/07/16 10:19:10;;;;;;;2.50;0.90;;;24.10;52.90;;;;;;5011566;28;20058;-72
2022/07/16 10:21:37;;;;;;;6.30;1.05;;;24.10;52.80;;;;;;5010523;28;20058;-72
2022/07/16 10:24:05;;;;;;;2.92;1.10;;;24.10;52.80;;;;;;5011819;28;20049;-72
2022/07/16 10:26:32;;;;;;;3.80;0.90;;;24.10;52.80;;;;;;5010676;28;20566;-71
2022/07/16 10:29:00;;;;;;;4.28;1.10;;;24.10;52.90;;;;;;5010983;28;20050;-72
2022/07/16 10:34:41;;;;;;;3.28;0.98;;;24.20;53.00;;;;;;5011166;28;20042;-72
2022/07/16 10:37:13;;;;;;;1.85;1.00;;;24.10;53.00;;;;;;5011732;28;20128;-72
2022/07/16 10:40:00;;;;;;;4.18;0.90;;;24.20;53.10;;;;;;5011687;28;20046;-72
2022/07/16 10:42:27;;;;;;;1.40;0.90;;;24.20;53.00;;;;;;5010353;28;20419;-72
2022/07/16 10:44:55;;;;;;;2.28;0.90;;;24.20;53.10;;;;;;5011189;28;20049;-72
2022/07/16 10:47:22;;;;;;;1.35;0.85;;;24.20;53.00;;;;;;5011342;28;20079;-72
2022/07/16 10:49:48;;;;;;;1.58;0.85;;;24.20;53.00;;;;;;5010370;28;20060;-72
2022/07/16 10:52:18;;;;;;;2.38;1.00;;;24.10;52.90;;;;;;5010539;28;20064;-72
2022/07/16 10:55:00;;;;;;;2.72;0.90;;;24.10;53.00;;;;;;5011353;28;20410;-72
2022/07/16 10:57:33;;;;;;;2.53;1.08;;;24.10;52.80;;;;;;5010126;28;20054;-72
2022/07/16 11:00:02;;;;;;;1.80;0.77;;;24.10;52.80;;;;;;5010988;28;20133;-72
2022/07/16 11:02:28;;;;;;;2.08;0.90;;;24.10;52.90;;;;;;5009971;28;20084;-72
2022/07/16 11:04:55;;;;;;;1.48;0.90;;;24.10;53.00;;;;;;5009978;28;20074;-72
2022/07/16 11:07:24;;;;;;;3.28;1.00;;;24.10;53.00;;;;;;5011399;28;20137;-72
2022/07/16 11:09:51;;;;;;;5.10;1.23;;;24.10;53.00;;;;;;5010148;28;20054;-73
2022/07/16 11:12:18;;;;;;;4.05;1.20;;;24.10;53.10;;;;;;5010247;28;20144;-73
2022/07/16 11:14:46;;;;;;;2.95;1.20;;;24.10;53.10;;;;;;5009514;28;20455;-73
2022/07/16 11:17:14;;;;;;;6.28;1.15;;;24.10;53.00;;;;;;5009317;28;20454;-72
2022/07/16 11:19:42;;;;;;;3.13;1.00;;;24.10;53.00;;;;;;5009649;28;20062;-73
2022/07/16 11:22:08;;;;;;;5.50;1.20;;;24.10;52.90;;;;;;5009921;28;20136;-72
2022/07/16 11:24:37;;;;;;;5.88;1.40;;;24.10;53.00;;;;;;5008932;28;20149;-73
2022/07/16 11:27:04;;;;;;;5.68;1.25;;;24.10;53.10;;;;;;5018256;28;20053;-73
2022/07/16 11:29:31;;;;;;;6.30;1.10;;;24.10;53.40;;;;;;5013915;28;20544;-73
2022/07/16 11:31:59;;;;;;;8.82;1.40;;;24.20;53.30;;;;;;5009929;28;20057;-73
2022/07/16 11:34:27;;;;;;;7.38;1.85;;;24.20;53.40;;;;;;5005816;28;20129;-73
2022/07/16 11:36:54;;;;;;;5.10;0.98;;;24.20;53.50;;;;;;5007745;28;20144;-72
2022/07/16 11:39:22;;;;;;;11.50;2.38;;;24.20;53.60;;;;;;5009395;28;20066;-72
2022/07/16 11:41:49;;;;;;;8.70;1.27;;;24.20;53.70;;;;;;5009357;28;20142;-72
2022/07/16 11:44:17;;;;;;;6.95;1.58;;;24.30;53.80;;;;;;5008978;28;20064;-72
2022/07/16 11:46:45;;;;;;;5.13;1.10;;;24.30;54.10;;;;;;4989186;28;20053;-72
2022/07/16 11:49:12;;;;;;;8.80;1.33;;;24.30;54.10;;;;;;5004435;28;20062;-72
2022/07/16 11:51:41;;;;;;;2.95;1.20;;;24.30;54.30;;;;;;5009115;28;20050;-72
2022/07/16 11:54:08;;;;;;;4.65;1.00;;;24.40;54.30;;;;;;5009350;28;20560;-72
2022/07/16 11:56:35;;;;;;;8.75;1.50;;;24.30;54.30;;;;;;5009368;28;20050;-72
2022/07/16 11:59:02;;;;;;;2.90;1.13;;;24.40;54.40;;;;;;5009329;28;20085;-73
2022/07/16 12:01:32;;;;;;;2.85;1.20;;;24.40;54.40;;;;;;5008903;28;20058;-73
2022/07/16 12:03:58;;;;;;;4.50;1.10;;;24.50;54.50;;;;;;5008688;28;20475;-73
2022/07/16 12:06:25;;;;;;;5.65;1.52;;;24.50;54.60;;;;;;5009152;28;20046;-73
2022/07/16 12:08:54;;;;;;;7.38;1.20;;;24.40;54.40;;;;;;5009653;28;20108;-73
2022/07/16 12:11:20;;;;;;;4.80;1.45;;;24.50;54.50;;;;;;5009076;28;20142;-73
2022/07/16 12:13:53;;;;;;;4.13;1.02;;;24.30;55.50;;;;;;5025430;28;20064;-73
2022/07/16 12:16:20;;;;;;;3.58;1.30;;;24.40;54.20;;;;;;5007056;28;20050;-73
2022/07/16 12:19:00;;;;;;;4.45;1.20;;;24.30;54.10;;;;;;5009400;28;20368;-74
2022/07/16 12:21:27;;;;;;;4.00;1.25;;;24.40;54.10;;;;;;5008694;28;20049;-73
2022/07/16 12:23:55;;;;;;;5.68;1.40;;;24.30;54.10;;;;;;5008976;28;20133;-72
2022/07/16 12:26:29;;;;;;;2.33;1.25;;;24.30;54.00;;;;;;5009458;28;20487;-72
2022/07/16 12:28:56;;;;;;;5.88;1.42;;;24.30;53.90;;;;;;5010631;28;20064;-73
2022/07/16 12:31:22;;;;;;;5.65;1.60;;;24.30;53.90;;;;;;5012650;28;20558;-73
2022/07/16 12:33:51;;;;;;;4.53;1.50;;;24.30;53.90;;;;;;5007913;28;20064;-73
2022/07/16 12:36:18;;;;;;;4.10;1.25;;;24.30;53.80;;;;;;5008458;28;20048;-73
2022/07/16 12:38:51;;;;;;;4.15;1.35;;;24.30;53.80;;;;;;5012263;28;20065;-72
2022/07/16 12:41:20;;;;;;;3.80;1.33;;;24.30;53.80;;;;;;5012341;28;20505;-73
2022/07/16 12:43:49;;;;;;;4.50;1.40;;;24.30;53.70;;;;;;5012026;28;20132;-73
2022/07/16 12:46:16;;;;;;;3.35;1.20;;;24.30;53.70;;;;;;5011838;28;20462;-73
2022/07/16 12:48:47;;;;;;;2.83;1.20;;;24.30;53.60;;;;;;5011700;28;20053;-72
2022/07/16 12:51:15;;;;;;;4.47;1.10;;;24.30;53.60;;;;;;5012178;28;20100;-72
2022/07/16 12:53:42;;;;;;;4.95;1.50;;;24.30;53.60;;;;;;5012771;28;20053;-73
2022/07/16 12:58:54;;;;;;;4.03;1.20;;;24.30;53.60;;;;;;5012409;28;20050;-72
2022/07/16 13:01:21;;;;;;;4.43;1.25;;;24.30;53.70;;;;;;5013451;28;20045;-72